createdAt,value
2019-02-19T00:00:39.850Z,10.48
2019-02-19T00:03:09.701Z,10.20
2019-02-19T00:05:39.622Z,10.28
2019-02-19T00:08:09.511Z,10.27
2019-02-19T00:10:39.344Z,9.53
2019-02-19T00:13:09.238Z,9.35
2019-02-19T00:15:39.226Z,9.53
2019-02-19T00:18:09.101Z,9.40
2019-02-19T00:20:39.034Z,9.40
2019-02-19T00:23:09.824Z,9.68
2019-02-19T00:25:39.633Z,9.48
2019-02-19T00:28:09.447Z,9.28
2019-02-19T00:30:39.251Z,9.48
2019-02-19T00:33:09.057Z,9.60
2019-02-19T00:35:38.983Z,10.28
2019-02-19T00:38:08.823Z,10.10
2019-02-19T00:40:38.668Z,10.08
2019-02-19T00:43:08.529Z,9.98
2019-02-19T00:45:38.391Z,10.20
2019-02-19T00:48:08.204Z,9.90
2019-02-19T00:50:38.033Z,10.13
2019-02-19T00:53:07.817Z,10.25
2019-02-19T00:55:37.694Z,9.90
2019-02-19T00:58:07.522Z,10.20
2019-02-19T01:00:37.427Z,10.15
2019-02-19T01:03:07.302Z,10.55
2019-02-19T01:05:37.201Z,10.03
2019-02-19T01:08:07.023Z,10.50
2019-02-19T01:10:36.921Z,9.88
2019-02-19T01:13:06.865Z,10.53
2019-02-19T01:15:36.797Z,10.38
2019-02-19T01:18:06.826Z,10.35
2019-02-19T01:20:36.676Z,10.10
2019-02-19T01:23:06.538Z,10.68
2019-02-19T01:25:36.347Z,10.20
2019-02-19T01:28:06.263Z,10.48
2019-02-19T01:30:36.102Z,10.05
2019-02-19T01:33:08.017Z,9.95
2019-02-19T01:35:37.932Z,10.25
2019-02-19T01:38:07.745Z,9.55
2019-02-19T01:40:37.559Z,9.33
2019-02-19T01:43:07.407Z,8.60
2019-02-19T01:45:37.234Z,9.55
2019-02-19T01:48:07.073Z,9.90
2019-02-19T01:50:36.941Z,9.75
2019-02-19T01:53:06.757Z,9.60
2019-02-19T01:55:36.750Z,9.17
2019-02-19T01:58:06.843Z,9.60
2019-02-19T02:00:37.108Z,9.70
2019-02-19T02:03:54.986Z,9.80
2019-02-19T02:06:26.056Z,10.10
2019-02-19T02:08:55.895Z,10.58
2019-02-19T02:11:25.820Z,10.48
2019-02-19T02:13:55.616Z,10.85
2019-02-19T02:16:25.643Z,11.33
2019-02-19T02:18:55.424Z,11.30
2019-02-19T02:21:25.274Z,10.70
2019-02-19T02:23:55.328Z,10.55
2019-02-19T02:26:25.260Z,11.22
2019-02-19T02:28:55.099Z,9.93
2019-02-19T02:31:24.974Z,10.03
2019-02-19T02:33:54.949Z,9.48
2019-02-19T02:36:24.926Z,9.95
2019-02-19T02:38:54.740Z,10.40
2019-02-19T02:41:24.636Z,10.30
2019-02-19T02:43:54.545Z,11.08
2019-02-19T02:46:24.512Z,10.93
2019-02-19T02:48:54.304Z,10.60
2019-02-19T02:51:24.253Z,10.65
2019-02-19T02:53:54.120Z,10.60
2019-02-19T02:56:24.109Z,10.45
2019-02-19T02:58:53.953Z,9.98
2019-02-19T03:01:23.873Z,10.75
2019-02-19T03:03:53.691Z,10.08
2019-02-19T03:06:57.928Z,10.38
2019-02-19T03:09:27.886Z,11.22
2019-02-19T03:11:57.705Z,10.30
2019-02-19T03:14:27.569Z,11.22
2019-02-19T03:16:57.530Z,10.65
2019-02-19T03:19:30.205Z,11.57
2019-02-19T03:22:00.132Z,10.72
2019-02-19T03:24:29.922Z,10.78
2019-02-19T03:26:59.829Z,11.28
2019-02-19T03:29:29.769Z,10.80
2019-02-19T03:31:59.579Z,10.77
2019-02-19T03:34:29.417Z,11.30
2019-02-19T03:36:59.261Z,10.60
2019-02-19T03:39:29.102Z,10.20
2019-02-19T03:41:58.930Z,10.58
2019-02-19T03:44:28.805Z,10.28
2019-02-19T03:46:58.678Z,11.50
2019-02-19T03:49:28.637Z,10.60
2019-02-19T03:51:58.555Z,10.10
2019-02-19T03:54:28.486Z,10.60
2019-02-19T03:56:58.321Z,10.13
2019-02-19T03:59:28.210Z,10.90
2019-02-19T04:01:58.109Z,10.63
2019-02-19T04:04:28.071Z,11.03
2019-02-19T04:06:57.899Z,10.75
2019-02-19T04:09:27.759Z,10.15
2019-02-19T04:11:57.642Z,10.60
2019-02-19T04:14:27.532Z,10.45
2019-02-19T04:16:57.363Z,11.15
2019-02-19T04:19:27.267Z,10.95
2019-02-19T04:21:57.137Z,11.03
2019-02-19T04:24:27.097Z,10.32
2019-02-19T04:26:57.007Z,11.50
2019-02-19T04:29:27.851Z,10.98
2019-02-19T04:31:57.689Z,10.58
2019-02-19T04:34:27.554Z,10.68
2019-02-19T04:36:57.410Z,11.23
2019-02-19T04:39:27.243Z,10.78
2019-02-19T04:41:57.014Z,11.00
2019-02-19T04:44:26.846Z,10.98
2019-02-19T04:46:56.642Z,11.20
2019-02-19T04:49:27.521Z,10.93
2019-02-19T04:51:57.327Z,11.05
2019-02-19T04:54:27.230Z,10.97
2019-02-19T04:56:57.031Z,10.88
2019-02-19T04:59:26.859Z,11.05
2019-02-19T05:01:56.713Z,11.40
2019-02-19T05:04:26.725Z,10.90
2019-02-19T05:06:56.533Z,11.45
2019-02-19T05:09:26.331Z,11.10
2019-02-19T05:11:56.122Z,11.22
2019-02-19T05:14:26.000Z,11.10
2019-02-19T05:16:55.805Z,11.12
2019-02-19T05:19:25.737Z,11.20
2019-02-19T05:21:55.600Z,11.15
2019-02-19T05:24:25.435Z,11.35
2019-02-19T05:26:55.294Z,10.88
2019-02-19T05:29:25.197Z,11.43
2019-02-19T05:31:55.068Z,10.97
2019-02-19T05:34:24.923Z,12.25
2019-02-19T05:36:54.688Z,11.73
2019-02-19T05:39:24.500Z,11.55
2019-02-19T05:41:54.458Z,11.80
2019-02-19T05:44:24.281Z,12.30
2019-02-19T05:46:54.158Z,12.82
2019-02-19T05:49:23.955Z,13.62
2019-02-19T05:51:53.861Z,13.65
2019-02-19T05:54:23.720Z,12.78
2019-02-19T05:56:53.719Z,13.85
2019-02-19T05:59:23.654Z,12.78
2019-02-19T06:01:53.522Z,12.75
2019-02-19T06:04:23.432Z,12.10
2019-02-19T06:06:53.303Z,11.25
2019-02-19T06:09:23.279Z,11.13
2019-02-19T06:11:53.214Z,10.93
2019-02-19T06:14:23.043Z,10.23
2019-02-19T06:16:58.507Z,9.83
2019-02-19T06:19:24.582Z,10.20
2019-02-19T06:21:54.484Z,10.17
2019-02-19T06:24:24.333Z,10.38
2019-02-19T06:26:54.359Z,9.93
2019-02-19T06:29:24.273Z,10.13
2019-02-19T06:31:54.294Z,9.55
2019-02-19T06:34:24.266Z,10.05
2019-02-19T06:36:54.175Z,10.00
2019-02-19T06:39:24.147Z,10.13
2019-02-19T06:41:53.990Z,9.90
2019-02-19T06:44:24.342Z,10.20
2019-02-19T06:46:54.208Z,10.35
2019-02-19T06:49:24.053Z,10.38
2019-02-19T06:51:54.069Z,9.60
2019-02-19T06:54:27.665Z,9.53
2019-02-19T06:56:57.506Z,10.25
2019-02-19T06:59:27.380Z,9.93
2019-02-19T07:02:06.288Z,10.53
2019-02-19T07:04:43.039Z,10.60
2019-02-19T07:07:12.972Z,10.65
2019-02-19T07:09:42.857Z,9.90
2019-02-19T07:12:13.130Z,10.80
2019-02-19T07:14:43.176Z,10.93
2019-02-19T07:17:15.635Z,11.83
2019-02-19T07:19:44.682Z,11.22
2019-02-19T07:22:14.758Z,11.28
2019-02-19T07:24:44.971Z,11.68
2019-02-19T07:27:14.903Z,11.28
2019-02-19T07:29:44.830Z,11.10
2019-02-19T07:32:14.837Z,10.60
2019-02-19T07:34:44.673Z,11.03
2019-02-19T07:37:14.570Z,10.55
2019-02-19T07:39:44.529Z,10.60
2019-02-19T07:42:14.406Z,10.82
2019-02-19T07:44:44.509Z,11.30
2019-02-19T07:47:14.404Z,11.70
2019-02-19T07:49:44.426Z,11.25
2019-02-19T07:52:14.309Z,10.82
2019-02-19T07:54:44.218Z,10.90
2019-02-19T07:57:14.161Z,11.00
2019-02-19T07:59:44.051Z,11.73
2019-02-19T08:02:13.985Z,11.08
2019-02-19T08:04:43.902Z,11.17
2019-02-19T08:07:13.901Z,10.82
2019-02-19T08:09:43.828Z,10.15
2019-02-19T08:12:13.706Z,10.60
2019-02-19T08:14:43.895Z,10.68
2019-02-19T08:17:13.782Z,10.85
2019-02-19T08:19:43.765Z,10.70
2019-02-19T08:22:13.666Z,11.70
2019-02-19T08:24:43.497Z,10.80
2019-02-19T08:27:13.414Z,11.20
2019-02-19T08:29:43.294Z,11.20
2019-02-19T08:32:13.089Z,11.48
2019-02-19T08:34:43.042Z,11.70
2019-02-19T08:37:13.929Z,11.22
2019-02-19T08:39:44.005Z,11.20
2019-02-19T08:42:13.857Z,11.60
2019-02-19T08:44:43.797Z,12.07
2019-02-19T08:47:13.699Z,11.33
2019-02-19T08:49:43.551Z,12.20
2019-02-19T08:52:13.408Z,12.47
2019-02-19T08:54:43.219Z,11.73
2019-02-19T08:57:13.046Z,12.18
2019-02-19T08:59:42.978Z,12.85
2019-02-19T09:02:12.839Z,13.18
2019-02-19T09:04:42.755Z,12.58
2019-02-19T09:07:12.609Z,13.15
2019-02-19T09:09:42.541Z,13.27
2019-02-19T09:12:12.503Z,14.35
2019-02-19T09:14:42.373Z,14.70
2019-02-19T09:17:12.234Z,14.65
2019-02-19T09:19:42.225Z,14.90
2019-02-19T09:22:12.033Z,14.35
2019-02-19T09:24:42.001Z,14.53
2019-02-19T09:27:11.866Z,14.10
2019-02-19T09:29:41.818Z,14.45
2019-02-19T09:32:11.676Z,14.80
2019-02-19T09:34:41.626Z,14.68
2019-02-19T09:37:11.553Z,15.32
2019-02-19T09:39:41.573Z,15.13
2019-02-19T09:42:11.415Z,14.07
2019-02-19T09:44:41.369Z,15.32
2019-02-19T09:47:11.205Z,15.80
2019-02-19T09:49:41.183Z,16.42
2019-02-19T09:52:11.097Z,15.55
2019-02-19T09:54:40.918Z,15.00
2019-02-19T09:57:10.818Z,15.68
2019-02-19T09:59:40.732Z,14.83
2019-02-19T10:02:10.629Z,15.17
2019-02-19T10:04:40.544Z,15.18
2019-02-19T10:07:10.378Z,15.38
2019-02-19T10:09:40.434Z,14.98
2019-02-19T10:12:10.348Z,14.95
2019-02-19T10:14:40.199Z,15.67
2019-02-19T10:17:10.021Z,14.95
2019-02-19T10:19:39.845Z,15.25
2019-02-19T10:22:09.806Z,15.13
2019-02-19T10:24:39.897Z,15.48
2019-02-19T10:27:09.859Z,15.60
2019-02-19T10:29:39.834Z,15.68
2019-02-19T10:32:09.699Z,15.75
2019-02-19T10:34:39.564Z,15.80
2019-02-19T10:37:09.378Z,15.50
2019-02-19T10:39:39.225Z,15.23
2019-02-19T10:42:09.159Z,14.20
2019-02-19T10:44:39.047Z,14.85
2019-02-19T10:47:08.878Z,14.95
2019-02-19T10:49:38.760Z,15.00
2019-02-19T10:52:08.998Z,15.63
2019-02-19T10:54:38.888Z,15.35
2019-02-19T10:57:08.831Z,15.78
2019-02-19T10:59:38.674Z,16.27
2019-02-19T11:02:08.629Z,15.90
2019-02-19T11:04:39.999Z,15.75
2019-02-19T11:07:09.906Z,16.62
2019-02-19T11:09:39.807Z,16.70
2019-02-19T11:12:09.753Z,16.52
2019-02-19T11:14:39.661Z,17.13
2019-02-19T11:17:11.803Z,15.93
2019-02-19T11:19:41.679Z,15.80
2019-02-19T11:22:13.470Z,14.80
2019-02-19T11:24:43.146Z,15.03
2019-02-19T11:27:12.947Z,15.38
2019-02-19T11:29:42.878Z,15.20
2019-02-19T11:32:12.718Z,15.85
2019-02-19T11:34:42.598Z,15.25
2019-02-19T11:37:12.454Z,15.85
2019-02-19T11:39:42.289Z,15.10
2019-02-19T11:42:12.261Z,15.48
2019-02-19T11:44:42.241Z,14.40
2019-02-19T11:47:12.246Z,14.57
2019-02-19T11:49:42.222Z,14.18
2019-02-19T11:52:12.087Z,14.30
2019-02-19T11:54:42.089Z,15.28
2019-02-19T11:57:11.962Z,14.47
2019-02-19T11:59:41.997Z,14.13
2019-02-19T12:02:14.986Z,13.90
2019-02-19T12:04:44.812Z,14.25
2019-02-19T12:07:14.766Z,14.28
2019-02-19T12:09:44.576Z,12.93
2019-02-19T12:12:14.486Z,14.68
2019-02-19T12:14:44.426Z,13.95
2019-02-19T12:17:14.282Z,13.15
2019-02-19T12:19:44.221Z,12.37
2019-02-19T12:22:14.174Z,13.08
2019-02-19T12:24:44.070Z,12.90
2019-02-19T12:27:14.060Z,11.75
2019-02-19T12:29:43.933Z,12.28
2019-02-19T12:32:13.863Z,11.50
2019-02-19T12:34:43.687Z,11.85
2019-02-19T12:37:13.620Z,10.87
2019-02-19T12:39:43.570Z,11.43
2019-02-19T12:42:13.416Z,11.30
2019-02-19T12:44:43.501Z,10.98
2019-02-19T12:47:13.326Z,10.68
2019-02-19T12:49:43.201Z,11.63
2019-02-19T12:52:13.044Z,11.48
2019-02-19T12:54:42.969Z,10.85
2019-02-19T12:57:14.640Z,10.48
2019-02-19T12:59:44.346Z,9.10
2019-02-19T13:02:14.430Z,8.98
2019-02-19T13:04:44.359Z,8.23
2019-02-19T13:07:14.373Z,8.33
2019-02-19T13:09:44.274Z,7.70
2019-02-19T13:12:14.110Z,8.00
2019-02-19T13:14:43.949Z,8.20
2019-02-19T13:17:13.770Z,8.05
2019-02-19T13:19:43.595Z,7.92
2019-02-19T13:22:13.406Z,8.20
2019-02-19T13:24:43.588Z,8.60
2019-02-19T13:27:13.422Z,8.45
2019-02-19T13:29:43.257Z,9.40
2019-02-19T13:32:13.201Z,7.50
2019-02-19T13:34:43.181Z,7.85
2019-02-19T13:37:13.250Z,7.78
2019-02-19T13:39:43.133Z,7.08
2019-02-19T13:42:13.043Z,7.58
2019-02-19T13:44:42.857Z,6.90
2019-02-19T13:47:12.655Z,6.97
2019-02-19T13:49:42.537Z,7.03
2019-02-19T13:52:23.480Z,6.97
2019-02-19T13:54:59.554Z,6.60
2019-02-19T13:57:29.479Z,5.25
2019-02-19T13:59:59.378Z,4.78
2019-02-19T14:02:29.228Z,4.15
2019-02-19T14:04:59.147Z,4.10
2019-02-19T14:07:29.127Z,3.37
2019-02-19T14:09:59.099Z,3.40
2019-02-19T14:12:29.031Z,3.42
2019-02-19T14:15:10.738Z,3.08
2019-02-19T14:17:40.547Z,2.95
2019-02-19T14:20:28.635Z,2.60
2019-02-19T14:23:17.266Z,3.02
2019-02-19T14:25:57.718Z,2.92
2019-02-19T14:28:45.263Z,2.90
2019-02-19T14:31:32.981Z,2.90
2019-02-19T14:34:21.870Z,2.85
2019-02-19T14:37:16.936Z,2.90
2019-02-19T14:40:10.542Z,2.45
2019-02-19T14:42:58.974Z,3.30
2019-02-19T14:45:50.898Z,2.70
2019-02-19T14:48:39.743Z,2.93
2019-02-19T14:51:27.623Z,2.67
2019-02-19T14:54:15.418Z,2.75
2019-02-19T14:57:13.103Z,2.62
2019-02-19T15:00:00.684Z,2.98
2019-02-19T15:02:54.249Z,2.90
2019-02-19T15:05:43.188Z,2.80
2019-02-19T15:08:47.393Z,2.80
2019-02-19T15:11:45.375Z,2.83
2019-02-19T15:14:37.054Z,2.90
2019-02-19T15:17:34.896Z,2.60
2019-02-19T15:20:42.464Z,2.50
2019-02-19T15:23:35.965Z,2.40
2019-02-19T15:26:23.783Z,2.40
2019-02-19T15:29:11.389Z,2.30
2019-02-19T15:31:57.013Z,2.20
2019-02-19T15:34:51.756Z,2.55
2019-02-19T15:37:33.736Z,2.70
2019-02-19T15:40:11.401Z,2.55
2019-02-19T15:43:16.655Z,2.62
2019-02-19T15:45:58.513Z,2.45
2019-02-19T15:48:46.380Z,2.20
2019-02-19T15:51:31.140Z,2.40
2019-02-19T15:54:23.047Z,2.47
2019-02-19T15:57:16.326Z,2.37
2019-02-19T16:00:07.970Z,2.40
2019-02-19T16:02:46.650Z,2.00
2019-02-19T16:05:37.204Z,2.45
2019-02-19T16:08:24.975Z,1.87
2019-02-19T16:11:02.509Z,2.30
2019-02-19T16:13:56.862Z,2.40
2019-02-19T16:16:54.554Z,2.10
2019-02-19T16:19:44.934Z,2.47
2019-02-19T16:22:36.586Z,2.10
2019-02-19T16:25:17.134Z,2.50
2019-02-19T16:27:57.929Z,2.75
2019-02-19T16:30:46.694Z,2.90
2019-02-19T16:33:34.486Z,2.83
2019-02-19T16:36:19.352Z,2.80
2019-02-19T16:39:07.043Z,2.47
2019-02-19T16:41:53.178Z,2.50
2019-02-19T16:44:40.735Z,2.72
2019-02-19T16:47:26.196Z,2.72
2019-02-19T16:50:08.710Z,2.55
2019-02-19T16:52:55.583Z,2.58
2019-02-19T16:55:48.355Z,2.40
2019-02-19T16:58:27.264Z,2.83
2019-02-19T17:01:13.150Z,2.90
2019-02-19T17:04:04.594Z,2.75
2019-02-19T17:06:56.741Z,2.70
2019-02-19T17:09:45.653Z,2.65
2019-02-19T17:12:39.599Z,3.00
2019-02-19T17:15:34.818Z,2.72
2019-02-19T17:18:39.111Z,2.45
2019-02-19T17:21:23.022Z,2.52
2019-02-19T17:24:08.609Z,3.20
2019-02-19T17:26:46.919Z,2.58
2019-02-19T17:29:38.634Z,3.00
2019-02-19T17:32:24.965Z,2.65
2019-02-19T17:35:14.022Z,2.95
2019-02-19T17:38:14.703Z,3.00
2019-02-19T17:40:58.216Z,3.10
2019-02-19T17:43:43.126Z,2.65
2019-02-19T17:46:25.868Z,3.03
2019-02-19T17:49:14.692Z,3.10
2019-02-19T17:52:07.216Z,3.27
2019-02-19T17:54:54.248Z,3.20
2019-02-19T17:57:42.951Z,3.00
2019-02-19T18:00:31.846Z,3.17
2019-02-19T18:03:33.028Z,2.70
2019-02-19T18:06:17.911Z,3.60
2019-02-19T18:09:03.815Z,3.80
2019-02-19T18:11:41.142Z,3.62
2019-02-19T18:14:39.060Z,3.50
2019-02-19T18:17:19.799Z,3.40
2019-02-19T18:19:49.665Z,3.58
2019-02-19T18:22:19.523Z,3.10
2019-02-19T18:24:49.411Z,3.35
2019-02-19T18:27:19.330Z,3.10
2019-02-19T18:29:49.153Z,3.50
2019-02-19T18:32:19.175Z,3.35
2019-02-19T18:34:49.090Z,3.50
2019-02-19T18:37:18.941Z,3.60
2019-02-19T18:39:49.034Z,3.40
2019-02-19T18:42:19.076Z,3.37
2019-02-19T18:44:49.032Z,3.33
2019-02-19T18:47:18.992Z,3.33
2019-02-19T18:49:49.023Z,3.30
2019-02-19T18:52:18.969Z,4.05
2019-02-19T18:54:48.965Z,4.12
2019-02-19T18:57:18.841Z,4.08
2019-02-19T18:59:48.953Z,3.27
2019-02-19T19:02:19.020Z,3.67
2019-02-19T19:04:48.942Z,3.90
2019-02-19T19:07:18.904Z,3.97
2019-02-19T19:09:48.914Z,4.00
2019-02-19T19:12:19.002Z,3.95
2019-02-19T19:14:48.883Z,4.37
2019-02-19T19:17:18.788Z,4.47
2019-02-19T19:19:48.754Z,4.50
2019-02-19T19:22:18.686Z,4.85
2019-02-19T19:24:48.715Z,5.08
2019-02-19T19:27:18.600Z,4.58
2019-02-19T19:29:48.683Z,4.60
2019-02-19T19:32:18.689Z,5.17
2019-02-19T19:34:48.627Z,5.00
2019-02-19T19:37:20.976Z,7.37
2019-02-19T19:39:50.863Z,6.92
2019-02-19T19:42:20.823Z,6.22
2019-02-19T19:44:50.901Z,4.57
2019-02-19T19:47:22.459Z,6.00
2019-02-19T19:49:52.503Z,7.97
2019-02-19T19:52:22.358Z,4.55
2019-02-19T19:54:52.231Z,4.45
2019-02-19T19:57:22.444Z,5.65
2019-02-19T19:59:52.350Z,4.87
2019-02-19T20:02:22.357Z,4.97
2019-02-19T20:04:54.927Z,4.60
2019-02-19T20:07:24.737Z,4.10
2019-02-19T20:09:54.802Z,5.00
2019-02-19T20:12:24.830Z,4.58
2019-02-19T20:14:54.941Z,4.58
2019-02-19T20:17:24.871Z,5.12
2019-02-19T20:19:54.771Z,5.55
2019-02-19T20:22:24.786Z,5.85
2019-02-19T20:24:54.793Z,5.70
2019-02-19T20:27:24.758Z,5.70
2019-02-19T20:29:55.877Z,5.20
2019-02-19T20:32:26.818Z,5.80
2019-02-19T20:34:56.779Z,6.03
2019-02-19T20:37:26.667Z,6.28
2019-02-19T20:39:56.585Z,6.20
2019-02-19T20:42:27.762Z,5.70
2019-02-19T20:44:58.708Z,5.83
2019-02-19T20:47:29.017Z,5.92
2019-02-19T20:49:58.994Z,5.80
2019-02-19T20:52:28.994Z,5.90
2019-02-19T20:55:02.271Z,5.80
2019-02-19T20:57:34.066Z,5.78
2019-02-19T21:00:04.558Z,6.05
2019-02-19T21:02:36.114Z,6.00
2019-02-19T21:05:07.869Z,6.75
2019-02-19T21:07:37.950Z,6.30
2019-02-19T21:10:10.779Z,6.00
2019-02-19T21:12:41.522Z,6.08
2019-02-19T21:15:13.688Z,6.00
2019-02-19T21:17:43.275Z,6.83
2019-02-19T21:20:13.569Z,7.25
2019-02-19T21:22:43.565Z,7.60
2019-02-19T21:25:13.673Z,6.78
2019-02-19T21:27:44.648Z,6.30
2019-02-19T21:30:14.759Z,5.78
2019-02-19T21:32:44.630Z,6.33
2019-02-19T21:35:15.711Z,5.83
2019-02-19T21:37:45.718Z,6.20
2019-02-19T21:40:15.759Z,6.12
2019-02-19T21:42:45.766Z,5.30
2019-02-19T21:45:15.755Z,6.03
2019-02-19T21:47:45.665Z,5.80
2019-02-19T21:50:16.036Z,5.80
2019-02-19T21:52:46.201Z,5.80
2019-02-19T21:55:16.266Z,5.72
2019-02-19T21:57:46.425Z,5.42
2019-02-19T22:00:17.300Z,5.70
2019-02-19T22:02:49.447Z,6.08
2019-02-19T22:05:19.786Z,5.67
2019-02-19T22:07:49.701Z,5.95
2019-02-19T22:10:19.881Z,5.97
2019-02-19T22:12:49.850Z,5.83
2019-02-19T22:15:19.778Z,5.65
2019-02-19T22:17:52.047Z,5.75
2019-02-19T22:20:43.284Z,5.97
2019-02-19T22:23:13.274Z,5.60
2019-02-19T22:25:43.322Z,6.03
2019-02-19T22:28:13.230Z,6.08
2019-02-19T22:30:43.314Z,5.55
2019-02-19T22:33:13.313Z,6.10
2019-02-19T22:35:43.892Z,6.00
2019-02-19T22:38:13.873Z,6.30
2019-02-19T22:40:43.765Z,5.80
2019-02-19T22:43:13.716Z,6.87
2019-02-19T22:45:43.622Z,6.87
2019-02-19T22:48:13.597Z,7.30
2019-02-19T22:50:43.489Z,7.00
2019-02-19T22:53:32.379Z,6.40
2019-02-19T22:56:11.602Z,6.47
2019-02-19T22:58:41.579Z,7.03
2019-02-19T23:01:32.570Z,7.20
2019-02-19T23:04:02.543Z,6.10
2019-02-19T23:06:32.489Z,6.25
2019-02-19T23:09:02.368Z,6.25
2019-02-19T23:11:33.875Z,5.75
2019-02-19T23:14:03.735Z,6.03
2019-02-19T23:16:33.609Z,6.13
2019-02-19T23:19:03.706Z,6.45
2019-02-19T23:21:33.525Z,6.37
2019-02-19T23:24:03.457Z,6.45
2019-02-19T23:26:33.413Z,6.67
2019-02-19T23:29:03.383Z,6.90
2019-02-19T23:31:33.325Z,6.73
2019-02-19T23:34:03.145Z,7.30
2019-02-19T23:36:40.432Z,7.05
2019-02-19T23:39:10.251Z,7.05
2019-02-19T23:41:40.308Z,6.80
2019-02-19T23:44:10.148Z,7.05
2019-02-19T23:46:39.957Z,7.35
2019-02-19T23:49:09.759Z,7.08
2019-02-19T23:51:39.561Z,7.28
2019-02-19T23:54:09.360Z,7.75
2019-02-19T23:56:39.158Z,7.80
2019-02-19T23:59:11.728Z,7.35
